Time;durP1;ratioP1;P1;durP2;ratioP2;P2;SDS_P1;SDS_P2;PMS_P1;PMS_P2;Temp;Humidity;BMP_temperature;BMP_pressure;BME280_temperature;BME280_humidity;BME280_pressure;Samples;Min_cycle;Max_cycle;Signal;HPM_P1;HPM_P2
2023/05/19 00:01:37;;;;;;;9.80;3.90;;;;;;;6.08;100.00;102645.63;7387109;19;20430;-37
2023/05/19 00:04:07;;;;;;;12.13;4.73;;;;;;;6.11;100.00;102633.81;7394556;19;20409;-35
2023/05/19 00:06:43;;;;;;;10.67;4.63;;;;;;;6.04;100.00;102627.22;7387975;19;20454;-36
2023/05/19 00:09:13;;;;;;;12.97;5.00;;;;;;;5.88;100.00;102630.94;7395292;19;20406;-36
2023/05/19 00:11:43;;;;;;;14.97;5.10;;;;;;;5.82;100.00;102635.50;7388310;19;20561;-36
2023/05/19 00:14:13;;;;;;;12.73;4.30;;;;;;;5.70;100.00;102637.88;7393316;19;20437;-35
2023/05/19 00:16:43;;;;;;;11.37;4.43;;;;;;;5.80;100.00;102647.28;7384297;19;20437;-37
2023/05/19 00:19:13;;;;;;;10.47;4.17;;;;;;;5.79;100.00;102653.16;7392206;19;21174;-37
2023/05/19 00:21:45;;;;;;;16.50;5.40;;;;;;;5.77;100.00;102652.13;7388236;19;20436;-36
2023/05/19 00:24:15;;;;;;;9.37;4.23;;;;;;;5.79;100.00;102661.75;7395635;19;20433;-38
2023/05/19 00:26:45;;;;;;;14.60;5.50;;;;;;;5.82;100.00;102694.44;7386744;19;20509;-36
2023/05/19 00:29:17;;;;;;;9.60;4.63;;;;;;;5.83;100.00;102688.56;7393350;19;20415;-35
2023/05/19 00:31:46;;;;;;;12.17;4.00;;;;;;;5.76;100.00;102699.00;7388792;19;20442;-36
2023/05/19 00:34:16;;;;;;;11.70;4.70;;;;;;;5.80;100.00;102704.53;7392667;19;21060;-38
2023/05/19 00:36:51;;;;;;;11.70;4.70;;;;;;;5.75;100.00;102705.75;7388449;19;20449;-36
2023/05/19 00:39:20;;;;;;;15.40;6.30;;;;;;;5.74;100.00;102714.22;7392497;19;20416;-37
2023/05/19 00:41:50;;;;;;;11.83;4.70;;;;;;;5.69;100.00;102710.31;7385935;19;21052;-36
2023/05/19 00:44:19;;;;;;;13.67;4.10;;;;;;;5.58;100.00;102701.66;7391764;19;20482;-35
2023/05/19 00:46:49;;;;;;;11.57;4.60;;;;;;;5.62;100.00;102714.00;7387334;19;20453;-37
2023/05/19 00:49:21;;;;;;;9.97;4.50;;;;;;;5.58;100.00;102714.44;7393109;19;20488;-37
2023/05/19 00:51:53;;;;;;;12.47;4.70;;;;;;;5.65;100.00;102718.50;7388790;19;20996;-36
2023/05/19 00:54:23;;;;;;;10.97;4.43;;;;;;;5.68;100.00;102718.75;7391928;19;20464;-38
2023/05/19 00:56:53;;;;;;;18.43;4.73;;;;;;;5.68;100.00;102718.75;7387633;19;20975;-37
2023/05/19 00:59:23;;;;;;;14.13;4.37;;;;;;;5.58;100.00;102716.13;7391617;19;20420;-40
2023/05/19 01:01:52;;;;;;;12.10;4.57;;;;;;;5.61;100.00;102732.69;7388186;19;20801;-36
2023/05/19 01:04:24;;;;;;;9.80;4.80;;;;;;;5.62;100.00;102731.00;7392319;19;20413;-35
2023/05/19 01:06:56;;;;;;;12.03;4.97;;;;;;;5.59;100.00;102731.59;7386869;19;20436;-37
2023/05/19 01:09:26;;;;;;;15.80;5.50;;;;;;;5.58;100.00;102736.63;7391684;19;20426;-39
2023/05/19 01:11:56;;;;;;;10.10;5.07;;;;;;;5.65;100.00;102739.88;7387923;19;20432;-37
2023/05/19 01:14:25;;;;;;;17.13;4.93;;;;;;;5.59;100.00;102743.53;7391496;19;20457;-37
2023/05/19 01:17:04;;;;;;;10.57;4.30;;;;;;;5.58;100.00;102741.72;7387184;19;20510;-37
2023/05/19 01:19:48;;;;;;;13.10;5.30;;;;;;;5.67;100.00;102747.72;7392010;19;20400;-38
2023/05/19 01:22:32;;;;;;;12.33;4.67;;;;;;;5.61;100.00;102749.69;7388226;19;21288;-37
2023/05/19 01:25:39;;;;;;;12.40;4.60;;;;;;;5.80;100.00;102755.78;7390799;19;20412;-37
2023/05/19 01:28:33;;;;;;;8.83;4.40;;;;;;;5.66;100.00;102740.78;7395555;19;20448;-37
2023/05/19 01:31:06;;;;;;;10.40;4.63;;;;;;;5.63;100.00;102750.72;7397282;19;20433;-36
2023/05/19 01:33:36;;;;;;;10.20;4.60;;;;;;;5.58;100.00;102751.97;7399055;19;20415;-37
2023/05/19 01:36:08;;;;;;;12.13;5.17;;;;;;;5.54;100.00;102751.66;7392380;19;20952;-36
2023/05/19 01:38:39;;;;;;;10.13;4.83;;;;;;;5.48;100.00;102751.09;7398866;19;20405;-37
2023/05/19 01:41:10;;;;;;;11.53;5.00;;;;;;;5.56;100.00;102763.72;7395606;19;20389;-37
2023/05/19 01:43:40;;;;;;;11.97;4.40;;;;;;;5.49;100.00;102770.81;7397459;19;20782;-36
2023/05/19 01:46:12;;;;;;;9.50;4.63;;;;;;;5.40;100.00;102785.31;7392949;19;20422;-37
2023/05/19 01:48:43;;;;;;;13.83;4.90;;;;;;;5.39;100.00;102797.22;7396665;19;20486;-37
2023/05/19 01:51:12;;;;;;;11.10;5.07;;;;;;;5.29;100.00;102803.88;7393281;19;20415;-38
2023/05/19 01:53:42;;;;;;;14.50;5.63;;;;;;;5.29;100.00;102821.78;7398373;19;20405;-37
2023/05/19 01:56:12;;;;;;;13.13;5.10;;;;;;;5.25;100.00;102833.38;7394205;19;20433;-38
2023/05/19 01:58:46;;;;;;;9.40;5.00;;;;;;;5.24;100.00;102858.06;7396849;19;20847;-38
2023/05/19 02:01:27;;;;;;;12.43;6.17;;;;;;;5.20;100.00;102866.22;7393535;19;20442;-37
2023/05/19 02:04:07;;;;;;;11.53;5.13;;;;;;;5.22;100.00;102862.16;7396970;19;20980;-39
2023/05/19 02:06:43;;;;;;;8.80;4.83;;;;;;;5.14;100.00;102866.50;7391711;19;20436;-37
2023/05/19 02:09:15;;;;;;;12.30;5.67;;;;;;;5.11;100.00;102870.44;7399377;19;20476;-37
2023/05/19 02:11:49;;;;;;;26.50;11.03;;;;;;;5.17;100.00;102877.81;7393529;19;20780;-37
2023/05/19 02:14:22;;;;;;;16.20;7.70;;;;;;;5.21;100.00;102893.63;7397581;19;20407;-37
2023/05/19 02:16:55;;;;;;;17.93;6.80;;;;;;;5.21;100.00;102877.34;7393245;19;20446;-38
2023/05/19 02:19:26;;;;;;;12.33;5.53;;;;;;;5.22;100.00;102880.06;7396080;19;20829;-37
2023/05/19 02:21:56;;;;;;;14.33;5.93;;;;;;;5.22;100.00;102885.19;7391916;19;20464;-37
2023/05/19 02:24:26;;;;;;;12.70;5.80;;;;;;;5.20;100.00;102888.34;7397012;19;20453;-37
2023/05/19 02:26:56;;;;;;;11.50;5.23;;;;;;;5.23;100.00;102884.41;7392716;19;20452;-37
2023/05/19 02:29:25;;;;;;;19.63;7.63;;;;;;;5.24;100.00;102880.22;7396112;19;20855;-35
2023/05/19 02:31:57;;;;;;;11.83;5.03;;;;;;;5.26;100.00;102882.19;7394107;19;20437;-37
2023/05/19 02:34:27;;;;;;;15.30;6.90;;;;;;;5.30;100.00;102885.94;7396423;19;20434;-37
2023/05/19 02:36:57;;;;;;;22.50;6.57;;;;;;;5.26;100.00;102887.28;7391975;19;20450;-37
2023/05/19 02:39:28;;;;;;;14.23;5.80;;;;;;;5.20;100.00;102886.69;7396230;19;20409;-37
2023/05/19 02:41:57;;;;;;;19.40;5.90;;;;;;;5.19;100.00;102884.91;7394348;19;20520;-38
2023/05/19 02:44:27;;;;;;;22.17;6.17;;;;;;;5.17;100.00;102886.38;7399257;19;20466;-37
2023/05/19 02:46:59;;;;;;;13.43;6.30;;;;;;;5.18;100.00;102887.28;7392152;19;20452;-37
2023/05/19 02:49:29;;;;;;;15.90;6.53;;;;;;;5.21;100.00;102888.50;7396301;19;20400;-37
2023/05/19 02:51:59;;;;;;;14.00;6.80;;;;;;;5.22;100.00;102887.75;7391493;19;20786;-38
2023/05/19 02:54:28;;;;;;;19.63;7.90;;;;;;;5.26;100.00;102891.50;7395064;19;20401;-36
2023/05/19 02:56:58;;;;;;;11.70;6.27;;;;;;;5.29;100.00;102890.91;7391992;19;20452;-38
2023/05/19 02:59:27;;;;;;;19.20;6.90;;;;;;;5.33;100.00;102891.34;7395185;19;20998;-38
2023/05/19 03:02:04;;;;;;;16.13;6.07;;;;;;;5.26;100.00;102889.84;7391821;19;20519;-38
2023/05/19 03:04:40;;;;;;;19.83;7.23;;;;;;;5.23;100.00;102888.66;7396504;19;20397;-37
2023/05/19 03:07:12;;;;;;;15.97;7.17;;;;;;;5.20;100.00;102891.81;7391309;19;20435;-36
2023/05/19 03:09:41;;;;;;;14.00;7.03;;;;;;;5.22;100.00;102884.25;7394874;19;20399;-38
2023/05/19 03:12:11;;;;;;;14.73;6.30;;;;;;;5.32;100.00;102891.22;7389968;19;21011;-38
2023/05/19 03:14:41;;;;;;;13.50;6.50;;;;;;;5.33;100.00;102898.13;7392848;19;20404;-37
2023/05/19 03:17:13;;;;;;;14.70;6.53;;;;;;;5.23;100.00;102891.22;7390966;19;20426;-38
2023/05/19 03:19:43;;;;;;;18.90;7.53;;;;;;;5.18;100.00;102898.41;7395298;19;20401;-38
2023/05/19 03:22:12;;;;;;;18.10;7.13;;;;;;;5.29;100.00;102901.13;7391473;19;20440;-37
2023/05/19 03:24:42;;;;;;;17.87;7.37;;;;;;;5.26;100.00;102894.97;7393921;19;20405;-37
2023/05/19 03:27:12;;;;;;;13.27;6.97;;;;;;;5.36;100.00;102895.84;7391333;19;20442;-37
2023/05/19 03:29:42;;;;;;;17.07;6.27;;;;;;;5.34;100.00;102899.94;7395001;19;20405;-37
2023/05/19 03:32:14;;;;;;;12.47;6.20;;;;;;;5.40;100.00;102895.41;7390198;19;20531;-37
2023/05/19 03:34:43;;;;;;;13.13;6.73;;;;;;;5.41;100.00;102899.78;7394730;19;20421;-37
2023/05/19 03:37:13;;;;;;;11.10;6.00;;;;;;;5.35;100.00;102901.75;7390569;19;20447;-37
2023/05/19 03:39:43;;;;;;;14.77;6.50;;;;;;;5.35;100.00;102901.75;7394904;19;20393;-37
2023/05/19 03:42:12;;;;;;;11.43;6.00;;;;;;;5.43;100.00;102918.75;7391614;19;20456;-38
2023/05/19 03:44:42;;;;;;;14.67;6.37;;;;;;;5.44;100.00;102914.53;7395005;19;20471;-37
2023/05/19 03:47:14;;;;;;;15.07;6.53;;;;;;;5.47;100.00;102925.97;7389451;19;20442;-38
2023/05/19 03:49:44;;;;;;;17.33;7.07;;;;;;;5.44;100.00;102928.22;7394125;19;20408;-38
2023/05/19 03:52:14;;;;;;;19.27;7.90;;;;;;;5.52;100.00;102932.44;7390501;19;20440;-37
2023/05/19 03:54:44;;;;;;;13.73;6.77;;;;;;;5.54;100.00;102936.06;7391925;19;20403;-38
2023/05/19 03:57:13;;;;;;;12.00;6.17;;;;;;;5.60;100.00;102934.84;7391375;19;20442;-38
2023/05/19 03:59:44;;;;;;;13.40;6.83;;;;;;;5.60;100.00;102942.53;7392595;19;20388;-37
2023/05/19 04:02:17;;;;;;;17.53;6.87;;;;;;;5.58;100.00;102931.25;7389985;19;20450;-37
2023/05/19 04:04:46;;;;;;;13.23;6.30;;;;;;;5.69;100.00;102945.97;7392741;19;20429;-37
2023/05/19 04:07:16;;;;;;;14.13;7.23;;;;;;;5.79;100.00;102942.63;7384069;19;20814;-37
2023/05/19 04:09:47;;;;;;;17.43;6.83;;;;;;;5.83;100.00;102943.88;7393039;19;20442;-37
2023/05/19 04:12:17;;;;;;;13.17;6.63;;;;;;;5.83;100.00;102943.88;7391212;19;20847;-37
2023/05/19 04:14:46;;;;;;;13.83;6.50;;;;;;;5.87;100.00;102944.31;7392973;19;20410;-38
2023/05/19 04:17:19;;;;;;;18.63;6.73;;;;;;;5.84;100.00;102946.56;7388439;19;20978;-37
2023/05/19 04:19:49;;;;;;;14.20;6.40;;;;;;;5.87;100.00;102943.38;7392302;19;20403;-38
2023/05/19 04:22:19;;;;;;;17.83;7.83;;;;;;;5.93;100.00;102936.28;7391434;19;20440;-38
2023/05/19 04:24:50;;;;;;;13.80;6.30;;;;;;;5.97;100.00;102938.41;7393478;19;20425;-38
2023/05/19 04:27:20;;;;;;;21.30;6.80;;;;;;;6.01;100.00;102935.34;7389805;19;20465;-37
2023/05/19 04:29:50;;;;;;;15.73;7.50;;;;;;;6.12;100.00;102938.06;7392789;19;20410;-37
2023/05/19 04:32:22;;;;;;;18.07;7.13;;;;;;;6.14;100.00;102936.53;7391143;19;20549;-38
2023/05/19 04:34:52;;;;;;;17.73;7.40;;;;;;;6.08;100.00;102922.41;7392073;19;20793;-37
2023/05/19 04:37:24;;;;;;;13.20;6.77;;;;;;;6.13;100.00;102920.28;7383787;19;20443;-38
2023/05/19 04:39:54;;;;;;;15.53;6.23;;;;;;;6.19;100.00;102923.44;7394016;19;20403;-37
2023/05/19 04:42:24;;;;;;;14.33;5.97;;;;;;;6.26;100.00;102909.50;7390472;19;20518;-38
2023/05/19 04:44:55;;;;;;;11.20;5.43;;;;;;;6.27;100.00;102911.34;7392817;19;20414;-37
2023/05/19 04:47:28;;;;;;;14.40;5.83;;;;;;;6.35;100.00;102905.25;7390089;19;20445;-38
2023/05/19 04:49:59;;;;;;;12.77;5.70;;;;;;;6.40;100.00;102897.97;7393968;19;20416;-37
2023/05/19 04:52:29;;;;;;;15.80;5.63;;;;;;;6.38;100.00;102896.94;7389680;19;20513;-38
2023/05/19 04:55:02;;;;;;;12.23;5.30;;;;;;;6.53;100.00;102897.47;7392287;19;20418;-38
2023/05/19 04:57:31;;;;;;;14.93;5.60;;;;;;;6.52;100.00;102887.97;7389232;19;20510;-37
2023/05/19 05:00:01;;;;;;;11.00;5.77;;;;;;;6.53;100.00;102884.66;7391418;19;20826;-38
2023/05/19 05:02:34;;;;;;;15.27;5.40;;;;;;;6.57;100.00;102888.41;7394820;19;20443;-38
2023/05/19 05:05:04;;;;;;;15.97;5.27;;;;;;;6.66;100.00;102883.22;7398438;19;20419;-37
2023/05/19 05:07:33;;;;;;;17.13;6.90;;;;;;;6.76;100.00;102880.72;7395513;19;20478;-37
2023/05/19 05:10:03;;;;;;;10.63;4.93;;;;;;;6.77;100.00;102877.38;7397856;19;20779;-37
2023/05/19 05:12:34;;;;;;;12.13;5.27;;;;;;;6.80;100.00;102862.28;7395582;19;20450;-37
2023/05/19 05:15:05;;;;;;;11.53;6.33;;;;;;;6.82;100.00;102865.00;7398148;19;20421;-37
2023/05/19 05:17:38;;;;;;;13.60;5.33;;;;;;;6.85;100.00;102853.34;7395655;19;20426;-37
2023/05/19 05:20:10;;;;;;;8.77;5.00;;;;;;;6.94;100.00;102852.34;7397403;19;20504;-38
2023/05/19 05:22:40;;;;;;;12.17;4.43;;;;;;;6.99;100.00;102845.97;7395962;19;20442;-38
2023/05/19 05:25:12;;;;;;;16.40;6.00;;;;;;;7.08;100.00;102848.47;7400744;19;20395;-36
2023/05/19 05:27:41;;;;;;;19.50;6.07;;;;;;;7.09;100.00;102840.91;7395230;19;20463;-38
2023/05/19 05:30:11;;;;;;;17.20;5.83;;;;;;;7.20;100.00;102831.59;7397947;19;20407;-38
2023/05/19 05:32:46;;;;;;;12.17;5.10;;;;;;;7.30;100.00;102820.47;7396791;19;20453;-37
2023/05/19 05:35:16;;;;;;;10.40;5.23;;;;;;;7.37;100.00;102815.09;7397553;19;21237;-37
2023/05/19 05:37:45;;;;;;;14.83;5.40;;;;;;;7.37;100.00;102802.25;7392414;19;20443;-37
2023/05/19 05:40:18;;;;;;;19.63;5.03;;;;;;;7.40;100.00;102792.25;7397729;19;20400;-37
2023/05/19 05:42:47;;;;;;;10.13;4.70;;;;;;;7.40;100.00;102786.22;7396357;19;20439;-38
2023/05/19 05:45:17;;;;;;;11.80;5.27;;;;;;;7.44;100.00;102772.88;7400283;19;20412;-37
2023/05/19 05:47:50;;;;;;;11.30;5.07;;;;;;;7.51;100.00;102770.09;7394690;19;20824;-37
2023/05/19 05:50:20;;;;;;;10.93;5.00;;;;;;;7.53;100.00;102758.25;7397414;19;20416;-37
2023/05/19 05:52:51;;;;;;;12.13;5.40;;;;;;;7.62;100.00;102741.81;7395970;19;21069;-37
2023/05/19 05:55:21;;;;;;;8.93;4.30;;;;;;;7.75;100.00;102734.38;7398092;19;20455;-38
2023/05/19 05:57:51;;;;;;;15.20;4.90;;;;;;;7.82;100.00;102738.41;7392909;19;20450;-37
2023/05/19 06:00:22;;;;;;;12.40;5.70;;;;;;;7.83;100.00;102720.53;7397426;19;20560;-37
2023/05/19 06:02:55;;;;;;;14.47;5.43;;;;;;;7.83;100.00;102704.22;7396983;19;20447;-37
2023/05/19 06:05:25;;;;;;;25.97;4.97;;;;;;;7.88;100.00;102710.63;7397458;19;20427;-38
2023/05/19 06:07:55;;;;;;;13.10;5.20;;;;;;;7.96;100.00;102690.72;7394857;19;20439;-37
2023/05/19 06:10:25;;;;;;;10.83;4.80;;;;;;;8.02;100.00;102678.38;7399421;19;20478;-38
2023/05/19 06:12:54;;;;;;;14.23;4.50;;;;;;;8.16;100.00;102676.06;7392163;19;20455;-38
2023/05/19 06:15:24;;;;;;;9.83;4.00;;;;;;;8.24;100.00;102675.91;7397211;19;20423;-38
2023/05/19 06:17:56;;;;;;;18.33;5.87;;;;;;;8.31;100.00;102666.13;7392538;19;20452;-38
2023/05/19 06:20:26;;;;;;;10.77;3.90;;;;;;;8.41;100.00;102655.78;7397748;19;20413;-39
2023/05/19 06:22:56;;;;;;;13.43;4.17;;;;;;;8.50;100.00;102638.53;7394622;19;20535;-37
2023/05/19 06:25:26;;;;;;;12.77;5.13;;;;;;;8.67;100.00;102632.97;7398685;19;20450;-40
2023/05/19 06:27:55;;;;;;;10.17;4.33;;;;;;;8.72;100.00;102614.53;7393787;19;20460;-37
2023/05/19 06:30:28;;;;;;;13.30;4.10;;;;;;;8.80;100.00;102592.00;7396840;19;20580;-37
2023/05/19 06:33:00;;;;;;;14.73;4.20;;;;;;;8.88;100.00;102556.56;7394078;19;20443;-38
2023/05/19 06:35:30;;;;;;;7.27;3.80;;;;;;;8.92;100.00;102537.97;7398294;19;20431;-38
2023/05/19 06:37:59;;;;;;;10.97;3.80;;;;;;;8.97;100.00;102523.78;7392894;19;20454;-37
2023/05/19 06:40:29;;;;;;;12.00;4.43;;;;;;;9.10;100.00;102505.03;7398229;19;20442;-38
2023/05/19 06:42:59;;;;;;;13.73;4.37;;;;;;;9.14;100.00;102480.41;7394657;19;20451;-37
2023/05/19 06:45:28;;;;;;;15.07;4.10;;;;;;;9.25;100.00;102469.25;7398167;19;20423;-37
2023/05/19 06:48:01;;;;;;;14.80;3.13;;;;;;;9.31;100.00;102453.31;7392926;19;20458;-37
2023/05/19 06:50:31;;;;;;;11.23;4.20;;;;;;;9.36;100.00;102439.13;7397164;19;20412;-38
2023/05/19 06:53:01;;;;;;;9.10;3.57;;;;;;;9.42;100.00;102420.63;7395286;19;20439;-39
2023/05/19 06:55:31;;;;;;;10.03;3.97;;;;;;;9.54;100.00;102416.38;7397773;19;20843;-38
2023/05/19 06:58:03;;;;;;;10.07;3.80;;;;;;;9.58;100.00;102402.94;7393530;19;20860;-38
2023/05/19 07:00:33;;;;;;;12.40;3.87;;;;;;;9.71;100.00;102399.53;7393603;19;20513;-38
2023/05/19 07:03:06;;;;;;;9.47;3.20;;;;;;;9.81;100.00;102390.81;7397124;19;20439;-37
2023/05/19 07:05:35;;;;;;;14.90;3.50;;;;;;;9.86;100.00;102353.31;7394943;19;20481;-37
2023/05/19 07:08:07;;;;;;;10.63;4.03;;;;;;;10.02;100.00;102332.88;7395971;19;21150;-37
2023/05/19 07:10:36;;;;;;;11.27;4.17;;;;;;;10.17;100.00;102322.72;7391762;19;20411;-37
2023/05/19 07:13:06;;;;;;;9.93;3.60;;;;;;;10.29;100.00;102284.88;7395580;19;20414;-36
2023/05/19 07:15:35;;;;;;;10.17;3.60;;;;;;;10.43;100.00;102264.28;7393882;19;20445;-37
2023/05/19 07:18:08;;;;;;;13.83;3.97;;;;;;;10.51;100.00;102237.31;7393805;19;20441;-37
2023/05/19 07:20:37;;;;;;;7.33;2.73;;;;;;;10.69;100.00;102211.81;7390607;19;20429;-36
2023/05/19 07:23:07;;;;;;;10.40;3.20;;;;;;;10.81;100.00;102175.53;7396147;19;20396;-38
2023/05/19 07:25:36;;;;;;;8.87;2.97;;;;;;;11.03;100.00;102156.25;7386178;19;20436;-36
2023/05/19 07:28:06;;;;;;;9.80;3.10;;;;;;;11.15;100.00;102145.78;7393804;19;20768;-37
2023/05/19 07:30:36;;;;;;;12.20;4.00;;;;;;;11.31;100.00;102134.69;7394045;19;20415;-35
2023/05/19 07:33:08;;;;;;;13.33;3.37;;;;;;;11.41;100.00;102142.22;7392564;19;20508;-37
2023/05/19 07:35:38;;;;;;;5.90;2.60;;;;;;;11.46;100.00;102145.06;7392594;19;20470;-36
2023/05/19 07:38:08;;;;;;;8.93;3.00;;;;;;;11.53;100.00;102143.75;7393724;19;20406;-37
2023/05/19 07:40:38;;;;;;;10.83;3.40;;;;;;;11.65;100.00;102144.47;7390564;19;20414;-37
2023/05/19 07:43:10;;;;;;;13.87;3.17;;;;;;;11.73;100.00;102158.75;7396577;19;20403;-38
2023/05/19 07:45:39;;;;;;;8.57;2.97;;;;;;;11.86;100.00;102154.31;7390962;19;20450;-37
2023/05/19 07:48:12;;;;;;;7.27;2.77;;;;;;;12.06;100.00;102168.44;7393575;19;20751;-36
2023/05/19 07:50:42;;;;;;;10.63;3.10;;;;;;;12.21;100.00;102163.25;7393659;19;20404;-38
2023/05/19 07:53:11;;;;;;;7.70;3.00;;;;;;;12.36;100.00;102183.94;7394171;19;20402;-37
2023/05/19 07:55:41;;;;;;;10.47;3.07;;;;;;;12.55;100.00;102193.66;7392010;19;20443;-37
2023/05/19 07:58:11;;;;;;;8.33;2.50;;;;;;;12.68;100.00;102204.69;7393214;19;20416;-37
2023/05/19 08:00:41;;;;;;;8.87;2.93;;;;;;;12.64;100.00;102205.31;7393268;19;20484;-37
2023/05/19 08:03:16;;;;;;;16.03;5.20;;;;;;;12.62;100.00;102204.34;7394060;19;20491;-38
2023/05/19 08:05:46;;;;;;;19.77;3.10;;;;;;;12.68;100.00;102197.81;7391375;19;20460;-37
2023/05/19 08:08:17;;;;;;;8.57;2.80;;;;;;;12.90;100.00;102208.47;7395869;19;20441;-38
2023/05/19 08:10:47;;;;;;;17.10;3.27;;;;;;;12.97;100.00;102249.44;7389011;19;20441;-37
2023/05/19 08:13:17;;;;;;;12.83;3.07;;;;;;;13.12;100.00;102277.91;7393639;19;20482;-38
2023/05/19 08:15:46;;;;;;;17.43;6.33;;;;;;;13.26;100.00;102302.00;7389901;19;20521;-37
2023/05/19 08:18:19;;;;;;;61.40;29.40;;;;;;;13.52;100.00;102299.97;7393350;19;20395;-37
2023/05/19 08:20:48;;;;;;;16.37;5.50;;;;;;;13.70;100.00;102309.56;7388871;19;20415;-37
2023/05/19 08:23:18;;;;;;;10.27;2.60;;;;;;;13.80;100.00;102344.69;7393281;19;20488;-40
2023/05/19 08:25:51;;;;;;;16.80;6.23;;;;;;;13.81;100.00;102365.53;7389589;19;20435;-37
2023/05/19 08:28:20;;;;;;;15.90;6.93;;;;;;;13.90;100.00;102375.50;7393089;19;20428;-37
2023/05/19 08:30:51;;;;;;;19.97;5.00;;;;;;;13.84;100.00;102395.94;7390607;19;20405;-37
2023/05/19 08:33:24;;;;;;;25.03;6.63;;;;;;;13.94;100.00;102405.09;7395046;19;20419;-36
2023/05/19 08:35:54;;;;;;;11.10;2.70;;;;;;;13.86;100.00;102428.94;7388170;19;20449;-35
2023/05/19 08:38:23;;;;;;;8.20;2.50;;;;;;;13.77;100.00;102420.63;7399646;19;20924;-36
2023/05/19 08:40:53;;;;;;;10.77;3.00;;;;;;;13.80;100.00;102431.19;7398213;19;20409;-37
2023/05/19 08:43:23;;;;;;;10.07;3.53;;;;;;;14.03;100.00;102426.34;7399838;19;20419;-37
2023/05/19 08:45:54;;;;;;;8.40;2.40;;;;;;;14.20;100.00;102427.25;7395195;19;20490;-36
2023/05/19 08:48:26;;;;;;;9.47;3.67;;;;;;;14.28;100.00;102410.41;7399387;19;20395;-36
2023/05/19 08:51:01;;;;;;;19.07;5.07;;;;;;;14.35;100.00;102406.41;7395652;19;20449;-37
2023/05/19 08:53:36;;;;;;;10.93;3.27;;;;;;;14.56;100.00;102405.75;7399633;19;20759;-38
2023/05/19 08:56:11;;;;;;;10.90;2.60;;;;;;;14.65;100.00;102421.78;7394987;19;20763;-37
2023/05/19 08:58:42;;;;;;;9.50;2.50;;;;;;;14.48;100.00;102438.19;7399915;19;20409;-37
2023/05/19 09:01:15;;;;;;;13.23;3.30;;;;;;;14.50;100.00;102411.50;7394332;19;20431;-39
2023/05/19 09:03:49;;;;;;;8.33;2.70;;;;;;;14.66;100.00;102407.13;7398040;19;20851;-36
2023/05/19 09:06:20;;;;;;;7.17;2.50;;;;;;;14.72;100.00;102428.22;7394017;19;20403;-36
2023/05/19 09:08:49;;;;;;;9.33;3.10;;;;;;;14.77;100.00;102431.94;7398294;19;20413;-36
2023/05/19 09:11:21;;;;;;;16.37;3.53;;;;;;;14.46;100.00;102425.13;7396402;19;21376;-36
2023/05/19 09:13:51;;;;;;;13.33;3.33;;;;;;;14.66;100.00;102428.78;7398260;19;20410;-36
2023/05/19 09:16:21;;;;;;;7.10;3.10;;;;;;;14.61;100.00;102440.63;7395773;19;20495;-37
2023/05/19 09:18:59;;;;;;;9.20;3.70;;;;;;;14.67;100.00;102420.16;7400155;19;20435;-36
2023/05/19 09:21:31;;;;;;;8.33;3.00;;;;;;;14.83;100.00;102421.00;7396779;19;20415;-36
2023/05/19 09:24:06;;;;;;;10.93;4.33;;;;;;;14.67;100.00;102456.53;7400796;19;20404;-37
2023/05/19 09:26:40;;;;;;;8.80;2.40;;;;;;;15.01;100.00;102456.53;7393799;19;20515;-37
2023/05/19 09:29:13;;;;;;;7.87;3.37;;;;;;;14.97;100.00;102458.94;7398329;19;20410;-36
2023/05/19 09:31:50;;;;;;;9.80;2.70;;;;;;;14.98;100.00;102442.53;7395288;19;20439;-38
2023/05/19 09:34:23;;;;;;;13.23;2.70;;;;;;;15.05;100.00;102451.56;7397792;19;20443;-37
2023/05/19 09:36:53;;;;;;;12.73;3.37;;;;;;;15.11;100.00;102458.75;7393144;19;20480;-37
2023/05/19 09:39:24;;;;;;;12.67;3.70;;;;;;;14.78;100.00;102458.84;7398513;19;20408;-36
2023/05/19 09:41:54;;;;;;;10.33;3.20;;;;;;;15.06;100.00;102450.72;7394661;19;21015;-38
2023/05/19 09:44:28;;;;;;;9.93;4.07;;;;;;;15.19;100.00;102448.75;7396817;19;20412;-37
2023/05/19 09:46:58;;;;;;;14.87;4.90;;;;;;;15.21;100.00;102442.81;7393505;19;21028;-35
2023/05/19 09:49:31;;;;;;;19.63;5.40;;;;;;;15.47;100.00;102443.19;7398078;19;20410;-35
2023/05/19 09:52:04;;;;;;;13.30;5.27;;;;;;;15.46;100.00;102446.63;7394021;19;20419;-36
2023/05/19 09:54:36;;;;;;;14.57;4.50;;;;;;;15.52;100.00;102439.09;7397393;19;20411;-37
2023/05/19 09:57:07;;;;;;;10.23;3.57;;;;;;;15.68;100.00;102442.41;7393132;19;20463;-36
2023/05/19 09:59:37;;;;;;;11.37;4.50;;;;;;;15.90;100.00;102438.25;7396065;19;20432;-36
2023/05/19 10:02:07;;;;;;;18.50;4.97;;;;;;;15.83;100.00;102439.66;7393947;19;21059;-36
2023/05/19 10:04:40;;;;;;;23.50;6.63;;;;;;;15.70;100.00;102421.69;7396323;19;20415;-35
2023/05/19 10:07:10;;;;;;;11.53;2.83;;;;;;;15.47;100.00;102414.56;7392918;19;20517;-36
2023/05/19 10:09:41;;;;;;;10.80;3.67;;;;;;;15.70;100.00;102411.28;7397153;19;20415;-35
2023/05/19 10:12:10;;;;;;;16.73;4.67;;;;;;;15.97;100.00;102416.00;7394660;19;20523;-38
2023/05/19 10:14:40;;;;;;;16.40;8.47;;;;;;;15.89;100.00;102431.25;7398451;19;20417;-37
2023/05/19 10:17:11;;;;;;;18.80;4.47;;;;;;;16.00;100.00;102424.84;7393234;19;20454;-36
2023/05/19 10:19:45;;;;;;;23.00;7.60;;;;;;;15.93;100.00;102444.53;7395257;19;20421;-36
2023/05/19 10:22:15;;;;;;;14.13;4.93;;;;;;;16.07;100.00;102446.88;7393203;19;20977;-36
2023/05/19 10:24:45;;;;;;;7.60;3.00;;;;;;;16.18;100.00;102435.22;7395666;19;20418;-35
2023/05/19 10:27:15;;;;;;;10.13;3.20;;;;;;;16.16;100.00;102430.78;7392204;19;20477;-36
2023/05/19 10:29:50;;;;;;;12.77;2.33;;;;;;;16.24;100.00;102433.72;7398200;19;20468;-38
2023/05/19 10:32:22;;;;;;;15.03;3.40;;;;;;;16.37;100.00;102441.25;7393440;19;20493;-38
2023/05/19 10:35:22;;;;;;;14.90;4.23;;;;;;;16.64;100.00;102432.88;7397225;19;20422;-38
2023/05/19 10:37:56;;;;;;;11.83;2.87;;;;;;;16.75;100.00;102433.31;7393758;19;20452;-37
2023/05/19 10:40:29;;;;;;;9.23;3.00;;;;;;;16.76;100.00;102435.09;7397057;19;20422;-37
2023/05/19 10:43:06;;;;;;;16.73;5.17;;;;;;;16.72;100.00;102428.00;7393869;19;20474;-38
2023/05/19 10:45:42;;;;;;;9.30;3.80;;;;;;;16.70;100.00;102429.63;7391661;19;20423;-33
2023/05/19 10:48:12;;;;;;;13.40;3.33;;;;;;;16.78;100.00;102433.47;7396672;19;20427;-37
2023/05/19 10:50:45;;;;;;;14.50;3.63;;;;;;;16.94;100.00;102423.69;7391829;19;20399;-38
2023/05/19 10:53:17;;;;;;;8.87;2.90;;;;;;;16.90;100.00;102421.75;7396982;19;20967;-37
2023/05/19 10:55:48;;;;;;;9.33;3.10;;;;;;;17.08;100.00;102424.31;7392074;19;20458;-37
2023/05/19 10:58:37;;;;;;;9.57;2.60;;;;;;;16.92;100.00;102421.00;7397205;19;20414;-37
2023/05/19 11:01:11;;;;;;;8.40;2.40;;;;;;;16.93;100.00;102422.81;7390821;19;20406;-37
2023/05/19 11:03:48;;;;;;;11.33;2.90;;;;;;;16.93;100.00;102420.22;7396412;19;20399;-38
2023/05/19 11:06:31;;;;;;;9.10;3.00;;;;;;;17.10;100.00;102414.81;7390067;19;20409;-38
2023/05/19 11:09:03;;;;;;;7.97;2.23;;;;;;;17.11;100.00;102419.19;7396253;19;20411;-38
2023/05/19 11:11:46;;;;;;;9.10;2.70;;;;;;;17.24;100.00;102418.88;7392993;19;20435;-38
2023/05/19 11:14:18;;;;;;;9.53;2.50;;;;;;;16.98;100.00;102416.06;7395946;19;20499;-42
2023/05/19 11:16:51;;;;;;;7.10;1.77;;;;;;;16.94;100.00;102408.94;7391327;19;21012;-38
2023/05/19 11:19:27;;;;;;;20.90;7.50;;;;;;;16.94;100.00;102410.66;7394945;19;20495;-37
2023/05/19 11:22:09;;;;;;;10.97;3.97;;;;;;;16.89;100.00;102405.25;7391941;19;21014;-37
2023/05/19 11:24:39;;;;;;;8.33;2.47;;;;;;;16.97;100.00;102410.78;7394416;19;20937;-37
2023/05/19 11:27:23;;;;;;;10.57;2.33;;;;;;;17.14;100.00;102407.16;7390944;19;20438;-37
2023/05/19 11:29:53;;;;;;;10.27;2.47;;;;;;;16.98;100.00;102403.00;7396491;19;20411;-37
2023/05/19 11:32:23;;;;;;;6.40;2.40;;;;;;;17.00;100.00;102405.69;7391433;19;20468;-38
2023/05/19 11:34:54;;;;;;;11.40;2.90;;;;;;;17.17;100.00;102400.31;7396395;19;20411;-37
2023/05/19 11:37:27;;;;;;;10.90;2.70;;;;;;;17.16;100.00;102391.59;7391707;19;20462;-37